aviador You're here:

KBML Decoded Metar

BERLIN in NH, USA
Report Time2017-12-17 07:52:00
UTC Time2017-12-17 08:02:22
Flight Rules vfr VFR
WindCalm
Visibility9999 m
Phenomena:N/A
Clouds:N/A
Expected CloudBase > 800 ft AGL from Temp-Dew spread
CeilingNone
Temp-15°C (ISA -28)
Dew Point-17°C (85% RH)
AAT-18.5°C
QNH1020 hPa
Density Alt-2,582 ft
Elevation1,132 ft
Report Wrong Elevation
Raw Report
KBML 170752Z AUTO 00000KT 10SM CLR M15/M17 A3013 RMK AO2 SLP228
T11501167=

Extra information for KBML:More info

Metar Taf Metar & Taf Last 4 Metars F.Rules Stats Wind Profile Meteogram Temp Stats Airport Information Weather charts Add Link Nearby VenuesMetar ALERT Operation Metar Decoded Social comments

AIRNAV info for KBML